createdAt,value
2022-07-31T00:01:09.857Z,17.16
2022-07-31T00:03:39.421Z,17.12
2022-07-31T00:06:09.390Z,17.03
2022-07-31T00:08:38.349Z,17.01
2022-07-31T00:11:07.231Z,17.00
2022-07-31T00:13:57.363Z,17.01
2022-07-31T00:16:24.806Z,17.01
2022-07-31T00:18:53.895Z,17.06
2022-07-31T00:21:22.786Z,17.12
2022-07-31T00:23:51.729Z,17.12
2022-07-31T00:26:20.537Z,17.21
2022-07-31T00:28:49.365Z,17.23
2022-07-31T00:31:19.067Z,17.26
2022-07-31T00:33:47.859Z,17.22
2022-07-31T00:36:17.046Z,17.22
2022-07-31T00:38:45.945Z,17.21
2022-07-31T00:41:16.061Z,17.27
2022-07-31T00:43:44.855Z,17.28
2022-07-31T00:46:14.263Z,17.34
2022-07-31T00:48:43.764Z,17.33
2022-07-31T00:51:12.951Z,17.42
2022-07-31T00:53:43.881Z,17.49
2022-07-31T00:56:12.621Z,17.55
2022-07-31T00:58:41.361Z,17.56
2022-07-31T01:01:10.622Z,17.59
2022-07-31T01:03:40.040Z,17.62
2022-07-31T01:06:09.832Z,17.62
2022-07-31T01:08:38.584Z,17.59
2022-07-31T01:11:34.795Z,17.57
2022-07-31T01:14:08.936Z,17.56
2022-07-31T01:16:45.685Z,17.50
2022-07-31T01:19:52.698Z,17.52
2022-07-31T01:22:46.881Z,17.47
2022-07-31T01:25:46.801Z,17.39
2022-07-31T01:28:41.803Z,17.41
2022-07-31T01:31:26.852Z,17.43
2022-07-31T01:34:06.482Z,17.49
2022-07-31T01:36:40.514Z,17.48
2022-07-31T01:39:09.564Z,17.47
2022-07-31T01:41:42.657Z,17.51
2022-07-31T01:44:14.584Z,17.52
2022-07-31T01:46:47.338Z,17.45
2022-07-31T01:49:19.676Z,17.38
2022-07-31T01:51:48.884Z,17.40
2022-07-31T01:54:21.103Z,17.39
2022-07-31T01:56:50.945Z,17.37
2022-07-31T01:59:22.905Z,17.46
2022-07-31T02:02:14.652Z,17.52
2022-07-31T02:04:47.796Z,17.61
2022-07-31T02:07:18.915Z,17.57
2022-07-31T02:09:50.945Z,17.55
2022-07-31T02:12:34.201Z,17.58
2022-07-31T02:15:24.978Z,17.61
2022-07-31T02:17:55.271Z,17.61
2022-07-31T02:20:26.326Z,17.54
2022-07-31T02:22:58.193Z,17.55
2022-07-31T02:25:28.148Z,17.60
2022-07-31T02:28:00.587Z,17.64
2022-07-31T02:30:39.145Z,17.71
2022-07-31T02:33:17.391Z,17.84
2022-07-31T02:35:50.257Z,18.04
2022-07-31T02:38:23.485Z,18.03
2022-07-31T02:41:05.483Z,17.95
2022-07-31T02:43:36.139Z,17.94
2022-07-31T02:46:15.151Z,17.92
2022-07-31T02:48:45.300Z,17.91
2022-07-31T02:51:15.948Z,17.90
2022-07-31T02:53:44.896Z,17.90
2022-07-31T02:56:14.639Z,17.87
2022-07-31T02:58:44.679Z,17.88
2022-07-31T03:01:23.273Z,17.84
2022-07-31T03:03:53.205Z,17.80
2022-07-31T03:06:22.042Z,17.78
2022-07-31T03:08:50.890Z,17.76
2022-07-31T03:11:22.946Z,17.79
2022-07-31T03:13:54.823Z,17.85
2022-07-31T03:16:24.391Z,17.81
2022-07-31T03:18:54.706Z,17.69
2022-07-31T03:21:24.318Z,17.74
2022-07-31T03:23:53.375Z,17.88
2022-07-31T03:26:24.556Z,18.30
2022-07-31T03:28:54.593Z,18.74
2022-07-31T03:31:23.445Z,18.81
2022-07-31T03:33:52.248Z,18.97
2022-07-31T03:36:21.362Z,19.09
2022-07-31T03:38:50.716Z,19.11
2022-07-31T03:41:34.377Z,19.28
2022-07-31T03:44:03.749Z,19.29
2022-07-31T03:46:33.272Z,19.37
2022-07-31T03:49:02.436Z,19.61
2022-07-31T03:51:32.672Z,20.01
2022-07-31T03:54:01.712Z,20.41
2022-07-31T03:56:53.389Z,20.77
2022-07-31T03:59:26.464Z,20.87
2022-07-31T04:01:58.974Z,20.74
2022-07-31T04:04:46.360Z,20.46
2022-07-31T04:07:16.210Z,20.50
2022-07-31T04:09:45.977Z,20.70
2022-07-31T04:12:17.403Z,20.72
2022-07-31T04:14:46.460Z,20.88
2022-07-31T04:17:15.561Z,21.01
2022-07-31T04:19:44.435Z,21.09
2022-07-31T04:22:13.286Z,20.98
2022-07-31T04:24:42.139Z,20.98
2022-07-31T04:27:48.585Z,21.23
2022-07-31T04:30:19.090Z,21.86
2022-07-31T04:32:49.117Z,22.56
2022-07-31T04:35:23.070Z,23.33
2022-07-31T04:37:52.081Z,23.63
2022-07-31T04:40:23.029Z,23.63
2022-07-31T04:42:51.807Z,23.84
2022-07-31T04:45:20.590Z,24.18
2022-07-31T04:47:49.608Z,24.56
2022-07-31T04:50:19.234Z,24.78
2022-07-31T04:52:57.952Z,25.13
2022-07-31T04:55:29.790Z,25.43
2022-07-31T04:57:58.733Z,25.54
2022-07-31T05:00:28.312Z,25.73
2022-07-31T05:02:57.311Z,26.51
2022-07-31T05:05:26.170Z,27.03
2022-07-31T05:07:55.079Z,27.05
2022-07-31T05:10:46.759Z,27.55
2022-07-31T05:13:16.657Z,28.05
2022-07-31T05:15:45.547Z,28.20
2022-07-31T05:18:14.357Z,28.45
2022-07-31T05:20:43.136Z,28.71
2022-07-31T05:23:27.294Z,29.08
2022-07-31T05:26:06.367Z,29.99
2022-07-31T05:28:35.259Z,30.49
2022-07-31T05:31:04.603Z,30.74
2022-07-31T05:33:34.318Z,30.33
2022-07-31T05:36:04.479Z,30.45
2022-07-31T05:38:33.644Z,31.00
2022-07-31T05:41:22.919Z,31.58
2022-07-31T05:44:01.055Z,30.93
2022-07-31T05:46:35.928Z,29.59
2022-07-31T05:49:05.076Z,28.16
2022-07-31T05:51:34.426Z,27.35
2022-07-31T05:54:03.545Z,26.77
2022-07-31T05:56:50.591Z,26.29
2022-07-31T05:59:24.586Z,26.13
2022-07-31T06:01:54.937Z,26.23
2022-07-31T06:04:25.582Z,26.05
2022-07-31T06:06:54.601Z,25.73
2022-07-31T06:09:23.455Z,25.57
2022-07-31T06:11:52.687Z,25.26
2022-07-31T06:14:21.554Z,24.84
2022-07-31T06:17:10.290Z,24.37
2022-07-31T06:19:40.395Z,23.99
2022-07-31T06:22:09.631Z,23.69
2022-07-31T06:24:40.597Z,23.57
2022-07-31T06:27:16.251Z,23.48
2022-07-31T06:30:01.339Z,23.26
2022-07-31T06:32:32.740Z,23.01
2022-07-31T06:35:03.251Z,22.70
2022-07-31T06:37:36.117Z,22.36
2022-07-31T06:40:05.462Z,21.96
2022-07-31T06:42:40.087Z,21.27
2022-07-31T06:45:09.752Z,20.87
2022-07-31T06:47:56.872Z,20.58
2022-07-31T06:50:37.081Z,20.33
2022-07-31T06:53:19.636Z,20.45
2022-07-31T06:55:48.570Z,20.63
2022-07-31T06:58:17.432Z,20.72
2022-07-31T07:00:47.840Z,20.66
2022-07-31T07:03:16.978Z,20.62
2022-07-31T07:05:45.932Z,21.01
2022-07-31T07:08:16.399Z,21.29
2022-07-31T07:10:47.748Z,21.33
2022-07-31T07:13:45.158Z,21.41
2022-07-31T07:16:15.348Z,21.71
2022-07-31T07:18:44.841Z,22.04
2022-07-31T07:21:14.318Z,22.34
2022-07-31T07:23:43.921Z,22.56
2022-07-31T07:26:27.647Z,22.92
2022-07-31T07:28:56.550Z,23.25
2022-07-31T07:31:25.774Z,23.53
2022-07-31T07:33:56.242Z,23.46
2022-07-31T07:36:26.200Z,23.32
2022-07-31T07:38:59.035Z,22.90
2022-07-31T07:41:28.193Z,22.44
2022-07-31T07:43:57.295Z,22.02
2022-07-31T07:46:28.761Z,21.68
2022-07-31T07:49:03.575Z,21.41
2022-07-31T07:51:59.057Z,21.23
2022-07-31T07:54:52.407Z,21.15
2022-07-31T07:57:40.553Z,20.99
2022-07-31T08:00:42.518Z,20.68
2022-07-31T08:03:48.353Z,20.72
2022-07-31T08:06:00.608Z,20.72
2022-07-31T08:08:29.715Z,21.11
2022-07-31T08:11:36.877Z,21.97
2022-07-31T08:14:18.491Z,22.05
2022-07-31T08:17:22.053Z,22.28
2022-07-31T08:19:51.824Z,22.25
2022-07-31T08:22:21.028Z,22.18
2022-07-31T08:24:50.075Z,21.95
2022-07-31T08:27:39.889Z,21.91
2022-07-31T08:30:11.554Z,21.98
2022-07-31T08:32:40.416Z,22.03
2022-07-31T08:35:12.041Z,22.04
2022-07-31T08:37:51.801Z,22.14
2022-07-31T08:40:43.086Z,22.25
2022-07-31T08:44:00.434Z,22.21
2022-07-31T08:46:05.637Z,22.32
2022-07-31T08:48:41.880Z,22.25
2022-07-31T08:51:14.360Z,22.23
2022-07-31T08:54:23.245Z,22.23
2022-07-31T08:56:53.565Z,22.12
2022-07-31T08:59:23.686Z,22.02
2022-07-31T09:01:53.840Z,22.10
2022-07-31T09:04:25.377Z,22.15
2022-07-31T09:06:55.326Z,22.21
2022-07-31T09:09:24.185Z,22.23
2022-07-31T09:12:13.129Z,22.15
2022-07-31T09:15:43.462Z,22.01
2022-07-31T09:18:31.868Z,21.97
2022-07-31T09:21:13.251Z,21.95
2022-07-31T09:23:47.395Z,21.99
2022-07-31T09:26:16.657Z,22.32
2022-07-31T09:28:49.432Z,22.59
2022-07-31T09:31:18.274Z,23.04
2022-07-31T09:34:00.309Z,23.28
2022-07-31T09:36:41.072Z,23.47
2022-07-31T09:39:28.469Z,23.55
2022-07-31T09:42:45.615Z,23.45
2022-07-31T09:45:26.238Z,23.31
2022-07-31T09:48:16.192Z,23.01
2022-07-31T09:50:56.556Z,22.67
2022-07-31T09:53:26.932Z,22.35
2022-07-31T09:56:16.708Z,22.04
2022-07-31T09:58:46.733Z,21.75
2022-07-31T10:01:17.289Z,21.64
2022-07-31T10:03:51.038Z,21.47
2022-07-31T10:06:21.442Z,21.26
2022-07-31T10:08:51.189Z,21.11
2022-07-31T10:11:41.203Z,20.99
2022-07-31T10:14:20.262Z,20.95
2022-07-31T10:16:51.657Z,21.00
2022-07-31T10:19:50.669Z,20.91
2022-07-31T10:22:32.583Z,20.65
2022-07-31T10:25:02.849Z,20.24
2022-07-31T10:27:33.766Z,19.77
2022-07-31T10:30:11.870Z,19.48
2022-07-31T10:32:45.426Z,19.32
2022-07-31T10:35:43.949Z,19.20
2022-07-31T10:38:52.555Z,19.17
2022-07-31T10:41:49.160Z,19.20
2022-07-31T10:44:35.498Z,19.23
2022-07-31T10:47:27.803Z,19.36
2022-07-31T10:50:25.429Z,19.31
2022-07-31T10:53:20.630Z,19.31
2022-07-31T10:56:14.440Z,19.24
2022-07-31T10:58:59.679Z,19.20
2022-07-31T11:01:58.286Z,19.17
2022-07-31T11:04:50.429Z,19.16
2022-07-31T11:07:48.864Z,19.15
2022-07-31T11:10:38.250Z,19.17
2022-07-31T11:13:51.090Z,19.25
2022-07-31T11:16:56.380Z,19.31
2022-07-31T11:19:45.494Z,19.37
2022-07-31T11:22:31.576Z,19.38
2022-07-31T11:25:01.321Z,19.36
2022-07-31T11:27:35.574Z,19.25
2022-07-31T11:30:12.561Z,19.23
2022-07-31T11:32:50.300Z,19.06
2022-07-31T11:35:27.804Z,19.05
2022-07-31T11:37:58.471Z,19.12
2022-07-31T11:40:29.038Z,19.04
2022-07-31T11:45:53.332Z,19.02
2022-07-31T11:48:27.528Z,18.97
2022-07-31T11:50:56.957Z,18.89
2022-07-31T11:53:26.385Z,18.83
2022-07-31T11:55:59.911Z,18.81
2022-07-31T11:58:30.399Z,18.75
2022-07-31T12:01:01.577Z,18.71
2022-07-31T12:03:37.201Z,18.64
2022-07-31T12:06:08.445Z,18.65
2022-07-31T12:08:40.444Z,18.63
2022-07-31T12:11:11.366Z,18.58
2022-07-31T12:13:45.524Z,18.60
2022-07-31T12:16:14.520Z,18.58
2022-07-31T12:18:54.280Z,18.56
2022-07-31T12:21:34.840Z,18.52
2022-07-31T12:24:12.069Z,18.49
2022-07-31T12:26:45.057Z,18.40
2022-07-31T12:29:14.129Z,18.36
2022-07-31T12:31:54.258Z,18.23
2022-07-31T12:34:34.486Z,18.32
2022-07-31T12:37:10.115Z,18.34
2022-07-31T12:39:59.289Z,18.35
2022-07-31T12:42:40.823Z,18.36
2022-07-31T12:45:19.185Z,18.35
2022-07-31T12:47:54.006Z,18.38
2022-07-31T12:50:24.323Z,18.37
2022-07-31T12:52:54.222Z,18.28
2022-07-31T12:55:23.221Z,18.46
2022-07-31T12:57:52.502Z,18.45
2022-07-31T13:00:24.557Z,18.51
2022-07-31T13:02:55.608Z,18.54
2022-07-31T13:05:26.248Z,18.55
2022-07-31T13:07:55.891Z,18.36
2022-07-31T13:10:30.893Z,18.53
2022-07-31T13:13:01.574Z,18.51
2022-07-31T13:15:30.397Z,18.48
2022-07-31T13:18:02.468Z,18.49
2022-07-31T13:20:31.938Z,18.46
2022-07-31T13:23:01.816Z,18.46
2022-07-31T13:25:33.463Z,18.44
2022-07-31T13:28:02.326Z,18.50
2022-07-31T13:30:31.146Z,18.50
2022-07-31T13:32:59.976Z,18.38
2022-07-31T13:35:29.310Z,18.49
2022-07-31T13:37:58.453Z,18.49
2022-07-31T13:40:46.319Z,18.26
2022-07-31T13:43:15.924Z,18.42
2022-07-31T13:45:44.948Z,18.38
2022-07-31T13:48:13.841Z,18.30
2022-07-31T13:50:42.766Z,18.26
2022-07-31T13:53:11.990Z,18.18
2022-07-31T13:55:40.767Z,18.11
2022-07-31T13:58:09.706Z,18.06
2022-07-31T14:00:39.517Z,18.10
2022-07-31T14:03:08.514Z,18.05
2022-07-31T14:05:40.142Z,18.04
2022-07-31T14:08:33.384Z,18.10
2022-07-31T14:10:58.758Z,18.16
2022-07-31T14:13:28.166Z,18.21
2022-07-31T14:15:57.415Z,18.23
2022-07-31T14:18:26.366Z,18.21
2022-07-31T14:20:55.234Z,18.17
2022-07-31T14:23:27.813Z,18.17
2022-07-31T14:26:05.720Z,18.13
2022-07-31T14:28:34.701Z,18.12
2022-07-31T14:31:03.448Z,18.18
2022-07-31T14:33:32.418Z,18.20
2022-07-31T14:36:01.317Z,18.26
2022-07-31T14:38:30.346Z,18.26
2022-07-31T14:40:59.448Z,18.26
2022-07-31T14:43:28.294Z,18.17
2022-07-31T14:45:57.100Z,18.22
2022-07-31T14:48:25.952Z,18.21
2022-07-31T14:50:54.869Z,18.13
2022-07-31T14:53:23.769Z,18.08
2022-07-31T14:55:52.654Z,18.04
2022-07-31T14:58:21.963Z,18.03
2022-07-31T15:00:51.280Z,18.01
2022-07-31T15:03:20.166Z,18.02
2022-07-31T15:06:41.098Z,18.01
2022-07-31T15:08:39.536Z,17.98
2022-07-31T15:11:08.569Z,17.92
2022-07-31T15:13:39.052Z,17.96
2022-07-31T15:16:10.070Z,17.93
2022-07-31T15:18:38.977Z,17.88
2022-07-31T15:21:13.058Z,17.87
2022-07-31T15:23:41.847Z,17.92
2022-07-31T15:26:10.677Z,17.85
2022-07-31T15:28:39.551Z,17.83
2022-07-31T15:31:08.533Z,17.83
2022-07-31T15:33:37.379Z,17.86
2022-07-31T15:36:14.800Z,17.82
2022-07-31T15:38:44.309Z,17.83
2022-07-31T15:41:18.963Z,17.80
2022-07-31T15:43:48.004Z,17.77
2022-07-31T15:46:16.821Z,17.79
2022-07-31T15:48:45.868Z,17.74
2022-07-31T15:51:14.784Z,17.74
2022-07-31T15:53:43.608Z,17.75
2022-07-31T15:56:12.418Z,17.69
2022-07-31T15:58:41.291Z,17.62
2022-07-31T16:01:10.749Z,17.61
2022-07-31T16:03:50.383Z,17.56
2022-07-31T16:06:20.087Z,17.55
2022-07-31T16:10:03.845Z,17.51
2022-07-31T16:12:35.692Z,17.50
2022-07-31T16:15:07.828Z,17.42
2022-07-31T16:17:39.767Z,17.40
2022-07-31T16:20:20.778Z,17.40
2022-07-31T16:22:58.819Z,17.40
2022-07-31T16:25:29.504Z,17.35
2022-07-31T16:28:01.083Z,17.33
2022-07-31T16:30:29.950Z,17.31
2022-07-31T16:32:58.811Z,17.32
2022-07-31T16:35:28.121Z,17.29
2022-07-31T16:37:57.127Z,17.27
2022-07-31T16:40:30.840Z,17.24
2022-07-31T16:43:47.161Z,17.24
2022-07-31T16:45:54.753Z,17.28
2022-07-31T16:48:23.812Z,17.27
2022-07-31T16:50:53.424Z,17.25
2022-07-31T16:54:11.278Z,17.21
2022-07-31T16:56:17.928Z,17.19
2022-07-31T16:58:48.406Z,17.15
2022-07-31T17:01:58.849Z,17.16
2022-07-31T17:04:08.335Z,17.13
2022-07-31T17:06:38.230Z,17.09
2022-07-31T17:09:16.985Z,17.15
2022-07-31T17:11:49.540Z,17.17
2022-07-31T17:14:20.112Z,17.16
2022-07-31T17:16:50.418Z,17.19
2022-07-31T17:19:41.913Z,17.15
2022-07-31T17:22:11.081Z,17.15
2022-07-31T17:24:40.669Z,17.12
2022-07-31T17:27:10.207Z,17.08
2022-07-31T17:29:39.887Z,17.03
2022-07-31T17:32:11.328Z,17.02
2022-07-31T17:34:41.319Z,16.95
2022-07-31T17:37:10.389Z,16.92
2022-07-31T17:39:39.395Z,16.87
2022-07-31T17:42:09.558Z,16.87
2022-07-31T17:44:39.914Z,16.85
2022-07-31T17:47:09.640Z,16.81
2022-07-31T17:49:38.902Z,16.84
2022-07-31T17:52:07.853Z,16.69
2022-07-31T17:54:36.652Z,16.82
2022-07-31T17:57:05.735Z,16.85
2022-07-31T17:59:34.857Z,16.85
2022-07-31T18:02:04.724Z,16.93
2022-07-31T18:04:36.088Z,16.95
2022-07-31T18:07:07.343Z,16.93
2022-07-31T18:09:37.221Z,16.96
2022-07-31T18:12:06.683Z,16.94
2022-07-31T18:14:36.585Z,16.92
2022-07-31T18:17:05.940Z,16.89
2022-07-31T18:19:34.883Z,16.86
2022-07-31T18:22:04.087Z,16.81
2022-07-31T18:24:33.153Z,16.74
2022-07-31T18:27:02.021Z,16.64
2022-07-31T18:29:30.787Z,16.66
2022-07-31T18:31:59.589Z,16.62
2022-07-31T18:34:28.712Z,16.56
2022-07-31T18:36:57.552Z,16.58
2022-07-31T18:39:26.389Z,16.55
2022-07-31T18:41:55.237Z,16.55
2022-07-31T18:44:24.097Z,16.50
2022-07-31T18:46:53.625Z,16.49
2022-07-31T18:50:59.943Z,16.46
2022-07-31T18:52:12.316Z,16.42
2022-07-31T18:54:46.489Z,16.37
2022-07-31T18:57:15.369Z,16.33
2022-07-31T18:59:44.166Z,16.29
2022-07-31T19:02:13.664Z,16.22
2022-07-31T19:04:42.654Z,16.20
2022-07-31T19:07:11.496Z,16.25
2022-07-31T19:09:40.820Z,16.25
2022-07-31T19:12:10.601Z,16.25
2022-07-31T19:14:40.863Z,16.25
2022-07-31T19:17:09.716Z,16.30
2022-07-31T19:19:54.333Z,16.35
2022-07-31T19:22:24.508Z,16.43
2022-07-31T19:24:53.871Z,16.45
2022-07-31T19:27:46.844Z,16.48
2022-07-31T19:30:14.334Z,16.47
2022-07-31T19:32:43.754Z,16.58
2022-07-31T19:35:12.653Z,16.63
2022-07-31T19:37:41.546Z,16.59
2022-07-31T19:40:11.049Z,16.66
2022-07-31T19:42:40.121Z,16.73
2022-07-31T19:45:09.244Z,16.78
2022-07-31T19:47:38.181Z,16.81
2022-07-31T19:50:08.058Z,16.85
2022-07-31T19:52:36.834Z,16.89
2022-07-31T19:55:07.105Z,16.93
2022-07-31T19:57:38.333Z,16.98
2022-07-31T20:00:12.417Z,17.03
2022-07-31T20:02:42.196Z,17.12
2022-07-31T20:05:11.684Z,17.14
2022-07-31T20:07:40.582Z,17.15
2022-07-31T20:10:12.774Z,17.18
2022-07-31T20:12:41.982Z,17.15
2022-07-31T20:15:11.224Z,17.19
2022-07-31T20:17:40.083Z,17.20
2022-07-31T20:20:15.282Z,17.21
2022-07-31T20:22:44.973Z,17.18
2022-07-31T20:25:19.724Z,17.19
2022-07-31T20:27:50.431Z,17.15
2022-07-31T20:30:22.432Z,17.16
2022-07-31T20:32:52.092Z,17.09
2022-07-31T20:35:33.040Z,17.08
2022-07-31T20:38:15.925Z,17.05
2022-07-31T20:40:49.943Z,17.05
2022-07-31T20:43:25.588Z,17.10
2022-07-31T20:45:58.799Z,17.14
2022-07-31T20:48:35.471Z,17.13
2022-07-31T20:51:05.812Z,17.12
2022-07-31T20:53:34.758Z,17.12
2022-07-31T20:56:03.532Z,17.10
2022-07-31T20:58:32.325Z,17.09
2022-07-31T21:01:01.777Z,17.10
2022-07-31T21:03:30.898Z,17.09
2022-07-31T21:05:59.930Z,17.10
2022-07-31T21:08:28.760Z,17.13
2022-07-31T21:11:01.136Z,17.16
2022-07-31T21:13:30.220Z,17.21
2022-07-31T21:15:59.424Z,17.21
2022-07-31T21:18:32.715Z,17.22
2022-07-31T21:21:03.224Z,17.21
2022-07-31T21:23:32.530Z,17.17
2022-07-31T21:26:03.234Z,17.21
2022-07-31T21:28:32.381Z,17.19
2022-07-31T21:31:01.636Z,17.22
2022-07-31T21:33:30.574Z,17.26
2022-07-31T21:35:59.828Z,17.27
2022-07-31T21:38:29.091Z,17.24
2022-07-31T21:40:58.360Z,17.16
2022-07-31T21:43:39.106Z,17.10
2022-07-31T21:46:23.447Z,17.11
2022-07-31T21:48:52.943Z,17.09
2022-07-31T21:51:22.158Z,17.15
2022-07-31T21:53:50.936Z,17.16
2022-07-31T21:56:19.808Z,17.17
2022-07-31T21:58:49.020Z,17.26
2022-07-31T22:01:19.842Z,17.32
2022-07-31T22:03:48.846Z,17.34
2022-07-31T22:06:36.099Z,17.31
2022-07-31T22:09:04.998Z,17.35
2022-07-31T22:11:34.392Z,17.38
2022-07-31T22:14:03.189Z,17.36
2022-07-31T22:16:31.986Z,17.37
2022-07-31T22:19:01.381Z,17.42
2022-07-31T22:21:30.359Z,17.50
2022-07-31T22:23:59.356Z,17.53
2022-07-31T22:26:30.377Z,17.58
2022-07-31T22:28:59.601Z,17.63
2022-07-31T22:31:31.417Z,17.65
2022-07-31T22:34:00.314Z,17.65
2022-07-31T22:36:29.214Z,17.61
2022-07-31T22:38:58.190Z,17.66
2022-07-31T22:41:27.315Z,17.73
2022-07-31T22:44:12.634Z,17.81
2022-07-31T22:46:43.842Z,17.88
2022-07-31T22:49:13.266Z,17.91
2022-07-31T22:51:46.368Z,17.99
2022-07-31T22:54:15.504Z,18.11
2022-07-31T22:56:44.264Z,18.17
2022-07-31T22:59:13.090Z,18.22
2022-07-31T23:01:43.352Z,18.37
2022-07-31T23:04:12.598Z,18.40
2022-07-31T23:06:41.401Z,18.63
2022-07-31T23:09:10.239Z,18.74
2022-07-31T23:11:44.655Z,18.84
2022-07-31T23:14:38.627Z,18.97
2022-07-31T23:17:07.448Z,18.96
2022-07-31T23:19:36.303Z,19.01
2022-07-31T23:22:05.348Z,18.98
2022-07-31T23:24:34.251Z,18.97
2022-07-31T23:27:08.766Z,19.00
2022-07-31T23:29:41.291Z,19.00
2022-07-31T23:32:10.930Z,19.06
2022-07-31T23:34:39.853Z,19.07
2022-07-31T23:37:09.900Z,18.95
2022-07-31T23:39:38.846Z,18.92
2022-07-31T23:42:26.242Z,18.94
2022-07-31T23:44:55.010Z,19.07
2022-07-31T23:47:27.963Z,19.08
2022-07-31T23:50:15.483Z,19.17
2022-07-31T23:52:45.042Z,19.23
2022-07-31T23:55:14.247Z,19.26
2022-07-31T23:57:43.353Z,19.32
